Euskara    
Meteorología y climatología de Navarra
Datos de la estación - Meteo Navarra

Estación de Erremendia (Salazar) GN

Altitud 1047 m.


Datos desde el 08/04/2021 hasta el 09/04/2021 en horario solar
Los datos son PROVISIONALES

Anterior Página 1 de 1 Siguiente Descargar: Formato para Excel 2000 o superior   Formato csv   Formato para OpenOffice Calc
Fecha Temperatura Humedad relativa Radiación global Insolación Precipitación Vel. viento 10 m Vel. viento 10 m Dir. viento 10 m
°C % W/m² s l/m² m/s km/h °
08/04/2021 0:00 3.2 63 0.0 0 0.0 2.0 7.2 125
08/04/2021 0:10 3.6 63 0.0 0 0.0 3.8 13.6 137
08/04/2021 0:20 3.8 63 0.0 0 0.0 3.3 12.0 133
08/04/2021 0:30 3.8 63 0.0 0 0.0 3.2 11.4 140
08/04/2021 0:40 3.7 64 0.0 0 0.0 3.0 10.9 141
08/04/2021 0:50 3.7 65 0.0 0 0.0 3.0 10.9 128
08/04/2021 1:00 3.7 67 0.0 0 0.0 3.0 10.9 143
08/04/2021 1:10 3.7 68 0.0 0 0.0 2.0 7.2 120
08/04/2021 1:20 3.6 69 0.0 0 0.0 3.3 11.7 137
08/04/2021 1:30 3.6 68 0.0 0 0.0 3.0 10.7 130
08/04/2021 1:40 3.3 70 0.0 0 0.0 2.4 8.5 139
08/04/2021 1:50 2.9 72 0.0 0 0.0 2.2 7.7 106
08/04/2021 2:00 2.9 72 0.0 0 0.0 2.6 9.2 105
08/04/2021 2:10 3.1 71 0.0 0 0.0 3.0 10.8 104
08/04/2021 2:20 3.0 71 0.0 0 0.0 4.0 14.5 95
08/04/2021 2:30 3.0 71 0.0 0 0.0 4.6 16.5 95
08/04/2021 2:40 3.0 71 0.0 0 0.0 4.9 17.7 101
08/04/2021 2:50 3.0 71 0.0 0 0.0 5.1 18.3 101
08/04/2021 3:00 3.0 71 0.0 0 0.0 5.8 20.9 99
08/04/2021 3:10 3.1 72 0.0 0 0.0 6.0 21.5 100
08/04/2021 3:20 3.1 73 0.0 0 0.0 5.7 20.4 102
08/04/2021 3:30 2.9 73 0.0 0 0.0 5.7 20.6 109
08/04/2021 3:40 2.7 74 0.0 0 0.0 5.2 18.6 107
08/04/2021 3:50 2.6 75 0.0 0 0.0 5.4 19.3 107
08/04/2021 4:00 2.5 75 0.0 0 0.0 5.4 19.6 111
08/04/2021 4:10 2.3 76 0.0 0 0.0 5.3 19.0 113
08/04/2021 4:20 2.5 76 0.0 0 0.0 5.4 19.5 113
08/04/2021 4:30 2.3 76 0.0 0 0.0 5.2 18.5 113
08/04/2021 4:40 2.3 76 0.0 0 0.0 4.9 17.7 109
08/04/2021 4:50 2.5 75 0.0 0 0.0 6.0 21.5 109
08/04/2021 5:00 2.5 75 0.0 0 0.0 5.7 20.5 110
08/04/2021 5:10 2.4 75 0.0 0 0.0 5.6 20.3 113
08/04/2021 5:20 2.5 74 0.0 0 0.0 6.1 21.9 114
08/04/2021 5:30 2.5 74 0.0 0 0.0 5.5 19.6 113
08/04/2021 5:40 2.3 75 0.0 0 0.0 5.5 19.8 109
08/04/2021 5:50 2.3 75 2.5 0 0.0 5.6 20.1 111
08/04/2021 6:00 2.3 75 28.1 232 0.0 5.8 20.7 107
08/04/2021 6:10 2.1 76 56.9 600 0.0 5.0 17.9 106
08/04/2021 6:20 2.2 76 80.7 600 0.0 5.6 20.1 98
08/04/2021 6:30 2.4 75 99.4 600 0.0 5.0 18.1 101
08/04/2021 6:40 2.7 73 132.6 600 0.0 6.1 21.9 103
08/04/2021 6:50 3.0 72 160.6 600 0.0 6.1 22.0 98
08/04/2021 7:00 3.2 70 193.6 600 0.0 5.5 19.8 101
08/04/2021 7:10 3.5 69 202.9 600 0.0 5.0 17.8 98
08/04/2021 7:20 3.7 67 257.5 600 0.0 5.1 18.2 96
08/04/2021 7:30 4.0 66 305.9 600 0.0 5.5 19.8 102
08/04/2021 7:40 4.5 65 341.8 600 0.0 4.3 15.6 92
08/04/2021 7:50 4.7 65 371.1 600 0.0 4.4 15.9 88
08/04/2021 8:00 4.9 64 395.0 600 0.0 4.3 15.4 83
08/04/2021 8:10 5.2 63 427.5 600 0.0 4.1 14.7 98
08/04/2021 8:20 5.4 63 459.1 600 0.0 3.5 12.7 110
08/04/2021 8:30 5.7 62 489.0 600 0.0 3.9 13.9 97
08/04/2021 8:40 6.0 61 520.4 600 0.0 4.4 15.9 101
08/04/2021 8:50 6.3 60 545.2 600 0.0 3.3 11.8 104
08/04/2021 9:00 6.8 59 581.1 600 0.0 3.3 11.9 100
08/04/2021 9:10 7.0 59 610.1 600 0.0 3.1 11.0 139
08/04/2021 9:20 7.4 58 637.8 600 0.0 2.9 10.3 124
08/04/2021 9:30 7.7 59 686.8 600 0.0 3.8 13.8 129
08/04/2021 9:40 8.1 58 755.0 600 0.0 2.9 10.6 147
08/04/2021 9:50 8.3 58 776.9 600 0.0 2.6 9.4 158
08/04/2021 10:00 8.9 58 727.7 570 0.0 3.3 11.7 186
08/04/2021 10:10 9.1 58 780.1 600 0.0 3.2 11.7 175
08/04/2021 10:20 8.7 59 744.3 586 0.0 3.5 12.6 143
08/04/2021 10:30 8.9 60 792.4 600 0.0 3.7 13.3 152
08/04/2021 10:40 9.0 59 782.6 596 0.0 3.5 12.6 193
08/04/2021 10:50 9.4 59 776.4 566 0.0 2.6 9.2 196
08/04/2021 11:00 9.8 58 825.0 600 0.0 3.0 10.7 180
08/04/2021 11:10 10.1 58 767.6 600 0.0 3.1 11.1 190
08/04/2021 11:20 10.2 58 849.0 600 0.0 3.8 13.6 191
08/04/2021 11:30 10.2 58 681.9 600 0.0 3.1 11.2 209
08/04/2021 11:40 10.3 57 785.6 600 0.0 3.5 12.6 185
08/04/2021 11:50 10.7 57 821.0 600 0.0 3.7 13.3 187
08/04/2021 12:00 10.7 57 835.0 600 0.0 2.9 10.3 199
08/04/2021 12:10 11.0 57 805.0 600 0.0 3.5 12.6 201
08/04/2021 12:20 10.9 58 721.7 600 0.0 3.7 13.3 199
08/04/2021 12:30 11.0 58 688.4 600 0.0 3.8 13.8 205
08/04/2021 12:40 11.3 58 707.7 600 0.0 3.5 12.5 197
08/04/2021 12:50 11.2 58 637.2 600 0.0 4.1 14.9 201
08/04/2021 13:00 11.1 57 672.8 600 0.0 3.0 10.7 193
08/04/2021 13:10 11.6 57 756.7 600 0.0 3.5 12.7 208
08/04/2021 13:20 12.3 54 786.5 600 0.0 4.0 14.2 196
08/04/2021 13:30 12.5 54 793.8 600 0.0 3.2 11.5 212
08/04/2021 13:40 13.1 53 750.6 600 0.0 3.1 11.1 203
08/04/2021 13:50 13.1 52 738.5 600 0.0 2.5 9.1 183
08/04/2021 14:00 12.9 53 643.6 600 0.0 3.7 13.2 197
08/04/2021 14:10 12.7 53 673.2 600 0.0 2.6 9.2 210
08/04/2021 14:20 12.9 53 674.1 600 0.0 3.6 13.0 183
08/04/2021 14:30 12.9 53 627.6 600 0.0 2.9 10.6 183
08/04/2021 14:40 12.7 54 564.8 600 0.0 3.8 13.8 177
08/04/2021 14:50 12.7 53 459.6 600 0.0 2.6 9.5 205
08/04/2021 15:00 12.5 55 403.6 600 0.0 3.1 11.3 206
08/04/2021 15:10 12.6 54 557.0 600 0.0 2.8 10.1 210
08/04/2021 15:20 12.8 54 390.9 600 0.0 2.5 8.9 186
08/04/2021 15:30 12.6 56 391.3 600 0.0 3.0 10.9 176
08/04/2021 15:40 12.6 56 409.5 600 0.0 2.8 10.0 171
08/04/2021 15:50 12.6 55 307.6 600 0.0 2.9 10.5 189
08/04/2021 16:00 12.3 56 367.7 600 0.0 2.8 10.1 198
08/04/2021 16:10 12.9 55 444.8 600 0.0 2.5 8.9 216
08/04/2021 16:20 13.1 53 473.3 600 0.0 3.4 12.2 196
08/04/2021 16:30 13.0 53 455.1 600 0.0 3.0 10.9 197
08/04/2021 16:40 13.0 54 369.6 600 0.0 3.1 11.0 191
08/04/2021 16:50 12.9 54 316.8 600 0.0 3.1 11.3 186
08/04/2021 17:00 12.8 55 269.3 600 0.0 3.0 10.7 204
08/04/2021 17:10 12.5 56 202.6 534 0.0 3.4 12.1 195
08/04/2021 17:20 12.3 57 186.6 600 0.0 2.6 9.4 217
08/04/2021 17:30 12.2 56 160.0 600 0.0 3.1 11.0 203
08/04/2021 17:40 12.0 57 165.4 600 0.0 3.4 12.2 202
08/04/2021 17:50 11.9 57 133.2 600 0.0 2.7 9.6 201
08/04/2021 18:00 11.7 58 90.1 600 0.0 2.6 9.4 199
08/04/2021 18:10 11.4 59 51.3 564 0.0 2.1 7.6 198
08/04/2021 18:20 10.9 61 17.0 0 0.0 1.1 3.9 186
08/04/2021 18:30 10.3 63 0.0 0 0.0 1.3 4.6 145
08/04/2021 18:40 9.9 65 0.0 0 0.0 0.7 2.4 76
08/04/2021 18:50 9.7 66 0.0 0 0.0 0.6 2.3 44
08/04/2021 19:00 9.1 69 0.0 0 0.0 1.1 3.8 24
08/04/2021 19:10 9.2 68 0.0 0 0.0 1.0 3.7 66
08/04/2021 19:20 8.5 70 0.0 0 0.0 1.0 3.6 82
08/04/2021 19:30 8.3 70 0.0 0 0.0 1.0 3.6 69
08/04/2021 19:40 7.1 73 0.0 0 0.0 0.8 2.8 82
08/04/2021 19:50 6.2 76 0.0 0 0.0 0.6 2.1 81
08/04/2021 20:00 6.4 78 0.0 0 0.0 1.0 3.6 81
08/04/2021 20:10 7.1 76 0.0 0 0.0 1.4 4.9 65
08/04/2021 20:20 7.8 74 0.0 0 0.0 0.7 2.4 77
08/04/2021 20:30 8.5 72 0.0 0 0.0 1.1 3.8 74
08/04/2021 20:40 9.1 69 0.0 0 0.0 0.7 2.4 54
08/04/2021 20:50 9.3 68 0.0 0 0.0 1.2 4.4 64
08/04/2021 21:00 9.5 67 0.0 0 0.0 1.2 4.2 75
08/04/2021 21:10 9.5 67 0.0 0 0.0 1.1 4.0 66
08/04/2021 21:20 9.4 67 0.0 0 0.0 1.2 4.4 67
08/04/2021 21:30 9.3 68 0.0 0 0.0 1.2 4.2 66
08/04/2021 21:40 9.0 70 0.0 0 0.0 1.5 5.3 79
08/04/2021 21:50 8.6 72 0.0 0 0.0 0.7 2.6 70
08/04/2021 22:00 8.2 73 0.0 0 0.0 0.7 2.6 35
08/04/2021 22:10 7.2 76 0.0 0 0.0 0.5 1.7 52
08/04/2021 22:20 6.9 78 0.0 0 0.0 1.7 6.1 80
08/04/2021 22:30 7.4 75 0.0 0 0.0 1.1 4.0 84
08/04/2021 22:40 6.6 76 0.0 0 0.0 0.4 1.4 57
08/04/2021 22:50 5.5 80 0.0 0 0.0 0.2 0.8 22
08/04/2021 23:00 4.9 82 0.0 0 0.0 0.1 0.4 79
08/04/2021 23:10 4.9 84 0.0 0 0.0 0.8 2.9 67
08/04/2021 23:20 4.4 84 0.0 0 0.0 0.7 2.7 72
08/04/2021 23:30 3.8 85 0.0 0 0.0 0.3 1.2 356
08/04/2021 23:40 3.0 86 0.0 0 0.0 0.4 1.3 78
08/04/2021 23:50 4.3 88 0.0 0 0.0 1.8 6.6 94
Anterior Página 1 de 1 Siguiente

NOTA: Tipo de datos según el color:
   - Valores diarios o 10 minutos correctos
   - Valores diarios calculados a partir de un número de datos 10 minutos menor que 144 y mayor que 120, o de un número de datos semihorarios menor que 48 y mayor que 40 (caso de las estaciones de INTIA Y Ministerio)
   - Valores diez minutos estimados


Contacto        Enlaces        Aviso legal